sensor_id;sensor_type;location;lat;lon;timestamp;P1;durP1;ratioP1;P2;durP2;ratioP2
9898;SDS011;4988;49.238;6.698;2023-07-13T00:00:37;4.53;;;2.80;;
9898;SDS011;4988;49.238;6.698;2023-07-13T00:03:02;4.80;;;3.10;;
9898;SDS011;4988;49.238;6.698;2023-07-13T00:05:29;5.90;;;3.00;;
9898;SDS011;4988;49.238;6.698;2023-07-13T00:07:54;4.40;;;3.20;;
9898;SDS011;4988;49.238;6.698;2023-07-13T00:10:20;7.73;;;3.17;;
9898;SDS011;4988;49.238;6.698;2023-07-13T00:12:47;7.13;;;2.90;;
9898;SDS011;4988;49.238;6.698;2023-07-13T00:15:17;4.63;;;3.00;;
9898;SDS011;4988;49.238;6.698;2023-07-13T00:17:48;9.33;;;3.30;;
9898;SDS011;4988;49.238;6.698;2023-07-13T00:20:14;10.37;;;4.70;;
9898;SDS011;4988;49.238;6.698;2023-07-13T00:22:39;17.40;;;8.83;;
9898;SDS011;4988;49.238;6.698;2023-07-13T00:25:05;6.50;;;3.40;;
9898;SDS011;4988;49.238;6.698;2023-07-13T00:27:30;6.30;;;3.00;;
9898;SDS011;4988;49.238;6.698;2023-07-13T00:29:56;8.97;;;2.97;;
9898;SDS011;4988;49.238;6.698;2023-07-13T00:32:22;8.53;;;2.80;;
9898;SDS011;4988;49.238;6.698;2023-07-13T00:34:50;4.87;;;2.97;;
9898;SDS011;4988;49.238;6.698;2023-07-13T00:37:15;7.20;;;2.90;;
9898;SDS011;4988;49.238;6.698;2023-07-13T00:39:40;10.37;;;3.03;;
9898;SDS011;4988;49.238;6.698;2023-07-13T00:42:06;4.50;;;2.90;;
9898;SDS011;4988;49.238;6.698;2023-07-13T00:44:31;4.10;;;2.43;;
9898;SDS011;4988;49.238;6.698;2023-07-13T00:46:57;6.10;;;3.10;;
9898;SDS011;4988;49.238;6.698;2023-07-13T00:49:24;5.97;;;2.70;;
9898;SDS011;4988;49.238;6.698;2023-07-13T00:51:54;8.20;;;2.90;;
9898;SDS011;4988;49.238;6.698;2023-07-13T00:54:23;6.87;;;2.60;;
9898;SDS011;4988;49.238;6.698;2023-07-13T00:56:53;4.50;;;2.63;;
9898;SDS011;4988;49.238;6.698;2023-07-13T00:59:22;5.83;;;3.00;;
9898;SDS011;4988;49.238;6.698;2023-07-13T01:01:49;6.93;;;2.80;;
9898;SDS011;4988;49.238;6.698;2023-07-13T01:04:14;4.90;;;3.23;;
9898;SDS011;4988;49.238;6.698;2023-07-13T01:06:40;5.30;;;2.87;;
9898;SDS011;4988;49.238;6.698;2023-07-13T01:09:09;5.60;;;2.80;;
9898;SDS011;4988;49.238;6.698;2023-07-13T01:11:36;6.17;;;2.77;;
9898;SDS011;4988;49.238;6.698;2023-07-13T01:14:01;5.63;;;2.90;;
9898;SDS011;4988;49.238;6.698;2023-07-13T01:16:30;5.87;;;3.07;;
9898;SDS011;4988;49.238;6.698;2023-07-13T01:18:58;6.70;;;2.87;;
9898;SDS011;4988;49.238;6.698;2023-07-13T01:21:24;5.50;;;3.10;;
9898;SDS011;4988;49.238;6.698;2023-07-13T01:23:50;5.53;;;2.70;;
9898;SDS011;4988;49.238;6.698;2023-07-13T01:26:16;9.53;;;3.33;;
9898;SDS011;4988;49.238;6.698;2023-07-13T01:28:41;4.20;;;3.10;;
9898;SDS011;4988;49.238;6.698;2023-07-13T01:31:06;7.80;;;3.17;;
9898;SDS011;4988;49.238;6.698;2023-07-13T01:33:33;8.93;;;3.40;;
9898;SDS011;4988;49.238;6.698;2023-07-13T01:35:59;6.97;;;2.83;;
9898;SDS011;4988;49.238;6.698;2023-07-13T01:38:24;6.77;;;2.90;;
9898;SDS011;4988;49.238;6.698;2023-07-13T01:40:51;6.20;;;3.00;;
9898;SDS011;4988;49.238;6.698;2023-07-13T01:43:17;6.37;;;3.00;;
9898;SDS011;4988;49.238;6.698;2023-07-13T01:45:44;6.53;;;3.17;;
9898;SDS011;4988;49.238;6.698;2023-07-13T01:48:10;6.63;;;3.57;;
9898;SDS011;4988;49.238;6.698;2023-07-13T01:50:35;4.83;;;3.30;;
9898;SDS011;4988;49.238;6.698;2023-07-13T01:53:01;11.17;;;3.90;;
9898;SDS011;4988;49.238;6.698;2023-07-13T01:55:28;6.40;;;3.43;;
9898;SDS011;4988;49.238;6.698;2023-07-13T01:57:53;6.27;;;3.13;;
9898;SDS011;4988;49.238;6.698;2023-07-13T02:00:18;8.20;;;3.47;;
9898;SDS011;4988;49.238;6.698;2023-07-13T02:02:44;8.20;;;3.27;;
9898;SDS011;4988;49.238;6.698;2023-07-13T02:05:09;4.97;;;3.30;;
9898;SDS011;4988;49.238;6.698;2023-07-13T02:07:36;10.00;;;3.50;;
9898;SDS011;4988;49.238;6.698;2023-07-13T02:10:02;5.53;;;3.43;;
9898;SDS011;4988;49.238;6.698;2023-07-13T02:12:27;5.20;;;3.33;;
9898;SDS011;4988;49.238;6.698;2023-07-13T02:14:53;6.13;;;3.50;;
9898;SDS011;4988;49.238;6.698;2023-07-13T02:17:18;6.57;;;3.23;;
9898;SDS011;4988;49.238;6.698;2023-07-13T02:19:43;4.10;;;3.13;;
9898;SDS011;4988;49.238;6.698;2023-07-13T02:22:09;4.30;;;3.03;;
9898;SDS011;4988;49.238;6.698;2023-07-13T02:24:34;5.87;;;3.03;;
9898;SDS011;4988;49.238;6.698;2023-07-13T02:27:00;5.23;;;3.23;;
9898;SDS011;4988;49.238;6.698;2023-07-13T02:29:25;4.17;;;2.60;;
9898;SDS011;4988;49.238;6.698;2023-07-13T02:31:50;7.20;;;2.67;;
9898;SDS011;4988;49.238;6.698;2023-07-13T02:34:16;7.97;;;3.17;;
9898;SDS011;4988;49.238;6.698;2023-07-13T02:36:41;4.23;;;2.93;;
9898;SDS011;4988;49.238;6.698;2023-07-13T02:39:11;4.90;;;3.03;;
9898;SDS011;4988;49.238;6.698;2023-07-13T02:41:37;4.07;;;2.90;;
9898;SDS011;4988;49.238;6.698;2023-07-13T02:44:03;4.33;;;2.70;;
9898;SDS011;4988;49.238;6.698;2023-07-13T02:46:32;5.60;;;2.90;;
9898;SDS011;4988;49.238;6.698;2023-07-13T02:48:59;6.43;;;3.13;;
9898;SDS011;4988;49.238;6.698;2023-07-13T02:51:24;4.80;;;3.30;;
9898;SDS011;4988;49.238;6.698;2023-07-13T02:53:50;5.73;;;3.37;;
9898;SDS011;4988;49.238;6.698;2023-07-13T02:56:15;6.80;;;3.20;;
9898;SDS011;4988;49.238;6.698;2023-07-13T02:58:41;6.97;;;3.40;;
9898;SDS011;4988;49.238;6.698;2023-07-13T03:01:07;5.13;;;3.17;;
9898;SDS011;4988;49.238;6.698;2023-07-13T03:03:34;6.00;;;3.10;;
9898;SDS011;4988;49.238;6.698;2023-07-13T03:06:00;4.90;;;3.27;;
9898;SDS011;4988;49.238;6.698;2023-07-13T03:08:28;9.00;;;3.70;;
9898;SDS011;4988;49.238;6.698;2023-07-13T03:11:03;5.33;;;3.50;;
9898;SDS011;4988;49.238;6.698;2023-07-13T03:13:32;3.67;;;3.17;;
9898;SDS011;4988;49.238;6.698;2023-07-13T03:15:57;7.80;;;3.80;;
9898;SDS011;4988;49.238;6.698;2023-07-13T03:18:23;9.07;;;2.97;;
9898;SDS011;4988;49.238;6.698;2023-07-13T03:20:51;6.17;;;3.20;;
9898;SDS011;4988;49.238;6.698;2023-07-13T03:23:17;4.93;;;2.90;;
9898;SDS011;4988;49.238;6.698;2023-07-13T03:25:43;5.10;;;3.33;;
9898;SDS011;4988;49.238;6.698;2023-07-13T03:28:10;5.80;;;2.90;;
9898;SDS011;4988;49.238;6.698;2023-07-13T03:30:35;6.10;;;2.90;;
9898;SDS011;4988;49.238;6.698;2023-07-13T03:33:01;6.37;;;2.93;;
9898;SDS011;4988;49.238;6.698;2023-07-13T03:35:26;5.07;;;3.00;;
9898;SDS011;4988;49.238;6.698;2023-07-13T03:37:52;7.80;;;3.03;;
9898;SDS011;4988;49.238;6.698;2023-07-13T03:40:17;3.60;;;2.80;;
9898;SDS011;4988;49.238;6.698;2023-07-13T03:42:43;4.20;;;2.80;;
9898;SDS011;4988;49.238;6.698;2023-07-13T03:45:08;5.23;;;3.27;;
9898;SDS011;4988;49.238;6.698;2023-07-13T03:47:34;5.60;;;3.10;;
9898;SDS011;4988;49.238;6.698;2023-07-13T03:49:59;5.10;;;2.90;;
9898;SDS011;4988;49.238;6.698;2023-07-13T03:52:24;8.93;;;3.30;;
9898;SDS011;4988;49.238;6.698;2023-07-13T03:54:50;8.43;;;2.83;;
9898;SDS011;4988;49.238;6.698;2023-07-13T03:57:15;4.63;;;2.87;;
9898;SDS011;4988;49.238;6.698;2023-07-13T03:59:40;3.80;;;2.90;;
9898;SDS011;4988;49.238;6.698;2023-07-13T04:02:05;6.90;;;2.80;;
9898;SDS011;4988;49.238;6.698;2023-07-13T04:04:31;4.23;;;2.90;;
9898;SDS011;4988;49.238;6.698;2023-07-13T04:06:59;6.87;;;2.80;;
9898;SDS011;4988;49.238;6.698;2023-07-13T04:09:24;7.70;;;2.80;;
9898;SDS011;4988;49.238;6.698;2023-07-13T04:11:50;6.20;;;2.90;;
9898;SDS011;4988;49.238;6.698;2023-07-13T04:14:16;5.30;;;2.83;;
9898;SDS011;4988;49.238;6.698;2023-07-13T04:16:41;4.40;;;2.77;;
9898;SDS011;4988;49.238;6.698;2023-07-13T04:19:07;4.27;;;2.70;;
9898;SDS011;4988;49.238;6.698;2023-07-13T04:21:35;5.70;;;3.10;;
9898;SDS011;4988;49.238;6.698;2023-07-13T04:24:00;3.90;;;2.90;;
9898;SDS011;4988;49.238;6.698;2023-07-13T04:26:26;5.03;;;3.07;;
9898;SDS011;4988;49.238;6.698;2023-07-13T04:28:51;4.97;;;2.90;;
9898;SDS011;4988;49.238;6.698;2023-07-13T04:31:17;4.80;;;3.20;;
9898;SDS011;4988;49.238;6.698;2023-07-13T04:33:43;7.17;;;2.80;;
9898;SDS011;4988;49.238;6.698;2023-07-13T04:36:08;5.70;;;3.17;;
9898;SDS011;4988;49.238;6.698;2023-07-13T04:38:34;7.53;;;3.23;;
9898;SDS011;4988;49.238;6.698;2023-07-13T04:41:01;4.60;;;2.97;;
9898;SDS011;4988;49.238;6.698;2023-07-13T04:43:29;5.87;;;2.87;;
9898;SDS011;4988;49.238;6.698;2023-07-13T04:45:55;7.90;;;2.70;;
9898;SDS011;4988;49.238;6.698;2023-07-13T04:48:20;5.23;;;2.60;;
9898;SDS011;4988;49.238;6.698;2023-07-13T04:50:46;4.30;;;2.70;;
9898;SDS011;4988;49.238;6.698;2023-07-13T04:53:12;3.77;;;2.70;;
9898;SDS011;4988;49.238;6.698;2023-07-13T04:55:37;6.93;;;2.97;;
9898;SDS011;4988;49.238;6.698;2023-07-13T04:58:03;4.60;;;2.70;;
9898;SDS011;4988;49.238;6.698;2023-07-13T05:00:29;5.17;;;2.77;;
9898;SDS011;4988;49.238;6.698;2023-07-13T05:02:55;7.60;;;2.80;;
9898;SDS011;4988;49.238;6.698;2023-07-13T05:05:22;5.30;;;2.50;;
9898;SDS011;4988;49.238;6.698;2023-07-13T05:07:48;5.27;;;2.80;;
9898;SDS011;4988;49.238;6.698;2023-07-13T05:10:13;7.27;;;3.30;;
9898;SDS011;4988;49.238;6.698;2023-07-13T05:12:38;8.73;;;3.20;;
9898;SDS011;4988;49.238;6.698;2023-07-13T05:15:04;5.30;;;2.87;;
9898;SDS011;4988;49.238;6.698;2023-07-13T05:17:29;5.03;;;2.73;;
9898;SDS011;4988;49.238;6.698;2023-07-13T05:19:55;5.40;;;2.20;;
9898;SDS011;4988;49.238;6.698;2023-07-13T05:22:20;6.47;;;2.40;;
9898;SDS011;4988;49.238;6.698;2023-07-13T05:24:46;5.17;;;2.43;;
9898;SDS011;4988;49.238;6.698;2023-07-13T05:27:12;5.30;;;2.90;;
9898;SDS011;4988;49.238;6.698;2023-07-13T05:29:37;5.37;;;2.73;;
9898;SDS011;4988;49.238;6.698;2023-07-13T05:32:03;5.43;;;2.57;;
9898;SDS011;4988;49.238;6.698;2023-07-13T05:34:29;7.00;;;2.77;;
9898;SDS011;4988;49.238;6.698;2023-07-13T05:36:54;4.03;;;2.63;;
9898;SDS011;4988;49.238;6.698;2023-07-13T05:39:20;6.67;;;3.07;;
9898;SDS011;4988;49.238;6.698;2023-07-13T05:41:45;6.67;;;3.10;;
9898;SDS011;4988;49.238;6.698;2023-07-13T05:44:10;5.00;;;2.83;;
9898;SDS011;4988;49.238;6.698;2023-07-13T05:46:36;6.60;;;2.90;;
9898;SDS011;4988;49.238;6.698;2023-07-13T05:49:01;5.67;;;2.67;;
9898;SDS011;4988;49.238;6.698;2023-07-13T05:51:26;6.07;;;2.73;;
9898;SDS011;4988;49.238;6.698;2023-07-13T05:53:52;5.57;;;2.20;;
9898;SDS011;4988;49.238;6.698;2023-07-13T05:56:17;7.30;;;2.37;;
9898;SDS011;4988;49.238;6.698;2023-07-13T05:58:42;5.97;;;2.43;;
9898;SDS011;4988;49.238;6.698;2023-07-13T06:01:11;7.57;;;2.20;;
9898;SDS011;4988;49.238;6.698;2023-07-13T06:03:39;3.10;;;2.10;;
9898;SDS011;4988;49.238;6.698;2023-07-13T06:06:05;4.70;;;2.03;;
9898;SDS011;4988;49.238;6.698;2023-07-13T06:08:31;8.80;;;1.93;;
9898;SDS011;4988;49.238;6.698;2023-07-13T06:11:17;4.07;;;2.40;;
9898;SDS011;4988;49.238;6.698;2023-07-13T06:13:44;3.77;;;2.00;;
9898;SDS011;4988;49.238;6.698;2023-07-13T06:16:10;6.30;;;2.10;;
9898;SDS011;4988;49.238;6.698;2023-07-13T06:18:39;3.37;;;1.70;;
9898;SDS011;4988;49.238;6.698;2023-07-13T06:21:05;7.30;;;1.80;;
9898;SDS011;4988;49.238;6.698;2023-07-13T06:23:35;3.70;;;1.80;;
9898;SDS011;4988;49.238;6.698;2023-07-13T06:26:01;5.87;;;1.90;;
9898;SDS011;4988;49.238;6.698;2023-07-13T06:28:28;3.20;;;1.73;;
9898;SDS011;4988;49.238;6.698;2023-07-13T06:30:53;6.70;;;1.90;;
9898;SDS011;4988;49.238;6.698;2023-07-13T06:33:18;4.43;;;1.63;;
9898;SDS011;4988;49.238;6.698;2023-07-13T06:35:44;5.27;;;1.87;;
9898;SDS011;4988;49.238;6.698;2023-07-13T06:38:09;3.03;;;1.77;;
9898;SDS011;4988;49.238;6.698;2023-07-13T06:40:34;4.07;;;1.60;;
9898;SDS011;4988;49.238;6.698;2023-07-13T06:43:00;5.53;;;1.70;;
9898;SDS011;4988;49.238;6.698;2023-07-13T06:45:25;5.30;;;1.60;;
9898;SDS011;4988;49.238;6.698;2023-07-13T06:47:50;3.20;;;1.80;;
9898;SDS011;4988;49.238;6.698;2023-07-13T06:50:16;8.30;;;1.90;;
9898;SDS011;4988;49.238;6.698;2023-07-13T06:52:41;3.33;;;1.60;;
9898;SDS011;4988;49.238;6.698;2023-07-13T06:55:06;2.83;;;1.57;;
9898;SDS011;4988;49.238;6.698;2023-07-13T06:57:33;3.77;;;1.57;;
9898;SDS011;4988;49.238;6.698;2023-07-13T06:59:58;6.00;;;1.60;;
9898;SDS011;4988;49.238;6.698;2023-07-13T07:02:23;3.87;;;1.70;;
9898;SDS011;4988;49.238;6.698;2023-07-13T07:04:48;6.87;;;1.70;;
9898;SDS011;4988;49.238;6.698;2023-07-13T07:07:15;2.70;;;1.57;;
9898;SDS011;4988;49.238;6.698;2023-07-13T07:09:40;4.13;;;1.90;;
9898;SDS011;4988;49.238;6.698;2023-07-13T07:12:05;3.73;;;1.90;;
9898;SDS011;4988;49.238;6.698;2023-07-13T07:14:31;3.23;;;1.70;;
9898;SDS011;4988;49.238;6.698;2023-07-13T07:16:56;4.23;;;1.90;;
9898;SDS011;4988;49.238;6.698;2023-07-13T07:19:23;5.40;;;1.80;;
9898;SDS011;4988;49.238;6.698;2023-07-13T07:21:49;3.30;;;1.60;;
9898;SDS011;4988;49.238;6.698;2023-07-13T07:24:14;7.13;;;1.90;;
9898;SDS011;4988;49.238;6.698;2023-07-13T07:26:40;3.50;;;1.80;;
9898;SDS011;4988;49.238;6.698;2023-07-13T07:29:06;4.13;;;1.80;;
9898;SDS011;4988;49.238;6.698;2023-07-13T07:31:31;4.73;;;1.60;;
9898;SDS011;4988;49.238;6.698;2023-07-13T07:33:56;6.23;;;1.50;;
9898;SDS011;4988;49.238;6.698;2023-07-13T07:36:21;3.77;;;1.77;;
9898;SDS011;4988;49.238;6.698;2023-07-13T07:38:47;3.57;;;1.50;;
9898;SDS011;4988;49.238;6.698;2023-07-13T07:41:12;4.00;;;1.77;;
9898;SDS011;4988;49.238;6.698;2023-07-13T07:43:38;4.30;;;1.70;;
9898;SDS011;4988;49.238;6.698;2023-07-13T07:46:03;5.57;;;1.87;;
9898;SDS011;4988;49.238;6.698;2023-07-13T07:48:29;5.23;;;1.70;;
9898;SDS011;4988;49.238;6.698;2023-07-13T07:50:54;4.77;;;1.70;;
9898;SDS011;4988;49.238;6.698;2023-07-13T07:53:20;5.63;;;1.73;;
9898;SDS011;4988;49.238;6.698;2023-07-13T07:55:45;6.20;;;1.50;;
9898;SDS011;4988;49.238;6.698;2023-07-13T07:58:10;5.43;;;1.57;;
9898;SDS011;4988;49.238;6.698;2023-07-13T08:00:36;4.67;;;1.53;;
9898;SDS011;4988;49.238;6.698;2023-07-13T08:03:01;3.37;;;1.50;;
9898;SDS011;4988;49.238;6.698;2023-07-13T08:05:27;3.97;;;1.47;;
9898;SDS011;4988;49.238;6.698;2023-07-13T08:07:53;4.77;;;1.50;;
9898;SDS011;4988;49.238;6.698;2023-07-13T08:10:18;5.23;;;1.60;;
9898;SDS011;4988;49.238;6.698;2023-07-13T08:12:44;3.50;;;1.37;;
9898;SDS011;4988;49.238;6.698;2023-07-13T08:15:11;4.27;;;1.90;;
9898;SDS011;4988;49.238;6.698;2023-07-13T08:17:39;3.57;;;1.40;;
9898;SDS011;4988;49.238;6.698;2023-07-13T08:20:04;8.90;;;2.17;;
9898;SDS011;4988;49.238;6.698;2023-07-13T08:22:30;4.97;;;1.63;;
9898;SDS011;4988;49.238;6.698;2023-07-13T08:24:56;7.60;;;1.50;;
9898;SDS011;4988;49.238;6.698;2023-07-13T08:27:24;8.33;;;2.30;;
9898;SDS011;4988;49.238;6.698;2023-07-13T08:29:51;4.23;;;1.70;;
9898;SDS011;4988;49.238;6.698;2023-07-13T08:32:17;6.80;;;1.80;;
9898;SDS011;4988;49.238;6.698;2023-07-13T08:34:43;3.47;;;1.80;;
9898;SDS011;4988;49.238;6.698;2023-07-13T08:37:08;4.50;;;1.70;;
9898;SDS011;4988;49.238;6.698;2023-07-13T08:39:34;11.97;;;1.80;;
9898;SDS011;4988;49.238;6.698;2023-07-13T08:42:00;5.67;;;1.80;;
9898;SDS011;4988;49.238;6.698;2023-07-13T08:44:33;5.90;;;1.40;;
9898;SDS011;4988;49.238;6.698;2023-07-13T08:47:08;6.80;;;1.90;;
9898;SDS011;4988;49.238;6.698;2023-07-13T08:49:36;8.40;;;2.00;;
9898;SDS011;4988;49.238;6.698;2023-07-13T08:52:08;5.87;;;1.87;;
9898;SDS011;4988;49.238;6.698;2023-07-13T08:55:06;4.60;;;1.80;;
9898;SDS011;4988;49.238;6.698;2023-07-13T08:57:37;5.23;;;1.90;;
9898;SDS011;4988;49.238;6.698;2023-07-13T09:00:10;8.03;;;1.87;;
9898;SDS011;4988;49.238;6.698;2023-07-13T09:02:43;8.77;;;1.87;;
9898;SDS011;4988;49.238;6.698;2023-07-13T09:05:18;4.73;;;1.83;;
9898;SDS011;4988;49.238;6.698;2023-07-13T09:13:32;5.33;;;1.80;;
9898;SDS011;4988;49.238;6.698;2023-07-13T09:16:00;7.90;;;1.63;;
9898;SDS011;4988;49.238;6.698;2023-07-13T09:18:33;5.73;;;1.70;;
9898;SDS011;4988;49.238;6.698;2023-07-13T09:21:03;8.63;;;1.90;;
9898;SDS011;4988;49.238;6.698;2023-07-13T09:23:33;4.73;;;1.70;;
9898;SDS011;4988;49.238;6.698;2023-07-13T09:26:04;4.90;;;1.70;;
9898;SDS011;4988;49.238;6.698;2023-07-13T09:28:37;7.30;;;2.00;;
9898;SDS011;4988;49.238;6.698;2023-07-13T09:31:16;7.03;;;2.00;;
9898;SDS011;4988;49.238;6.698;2023-07-13T09:34:00;6.17;;;2.07;;
9898;SDS011;4988;49.238;6.698;2023-07-13T09:36:28;5.37;;;1.77;;
9898;SDS011;4988;49.238;6.698;2023-07-13T09:39:40;6.83;;;1.90;;
9898;SDS011;4988;49.238;6.698;2023-07-13T09:41:53;4.77;;;1.60;;
9898;SDS011;4988;49.238;6.698;2023-07-13T09:44:30;5.43;;;1.77;;
9898;SDS011;4988;49.238;6.698;2023-07-13T09:46:58;5.33;;;1.80;;
9898;SDS011;4988;49.238;6.698;2023-07-13T09:49:28;4.80;;;1.80;;
9898;SDS011;4988;49.238;6.698;2023-07-13T09:52:00;5.93;;;1.50;;
9898;SDS011;4988;49.238;6.698;2023-07-13T09:54:27;3.17;;;1.00;;
9898;SDS011;4988;49.238;6.698;2023-07-13T09:56:57;2.53;;;1.23;;
9898;SDS011;4988;49.238;6.698;2023-07-13T09:59:26;5.33;;;1.30;;
9898;SDS011;4988;49.238;6.698;2023-07-13T10:01:54;6.80;;;1.57;;
9898;SDS011;4988;49.238;6.698;2023-07-13T10:04:21;7.40;;;1.67;;
9898;SDS011;4988;49.238;6.698;2023-07-13T10:06:52;3.83;;;1.60;;
9898;SDS011;4988;49.238;6.698;2023-07-13T10:09:31;5.60;;;1.63;;
9898;SDS011;4988;49.238;6.698;2023-07-13T10:11:57;4.23;;;1.30;;
9898;SDS011;4988;49.238;6.698;2023-07-13T10:14:22;4.20;;;1.20;;
9898;SDS011;4988;49.238;6.698;2023-07-13T10:16:50;5.37;;;1.80;;
9898;SDS011;4988;49.238;6.698;2023-07-13T10:19:24;5.80;;;1.63;;
9898;SDS011;4988;49.238;6.698;2023-07-13T10:21:55;7.07;;;1.97;;
9898;SDS011;4988;49.238;6.698;2023-07-13T10:24:27;4.63;;;1.47;;
9898;SDS011;4988;49.238;6.698;2023-07-13T10:27:05;3.43;;;1.57;;
9898;SDS011;4988;49.238;6.698;2023-07-13T10:29:38;4.67;;;1.57;;
9898;SDS011;4988;49.238;6.698;2023-07-13T10:32:09;8.50;;;1.70;;
9898;SDS011;4988;49.238;6.698;2023-07-13T10:34:38;5.67;;;1.40;;
9898;SDS011;4988;49.238;6.698;2023-07-13T10:37:14;4.13;;;1.50;;
9898;SDS011;4988;49.238;6.698;2023-07-13T10:39:45;5.67;;;1.40;;
9898;SDS011;4988;49.238;6.698;2023-07-13T10:42:11;5.77;;;1.53;;
9898;SDS011;4988;49.238;6.698;2023-07-13T10:44:53;5.50;;;1.60;;
9898;SDS011;4988;49.238;6.698;2023-07-13T10:47:18;2.63;;;1.40;;
9898;SDS011;4988;49.238;6.698;2023-07-13T10:49:44;3.40;;;1.27;;
9898;SDS011;4988;49.238;6.698;2023-07-13T11:01:09;3.93;;;1.50;;
9898;SDS011;4988;49.238;6.698;2023-07-13T11:03:38;4.20;;;1.60;;
9898;SDS011;4988;49.238;6.698;2023-07-13T11:08:53;6.13;;;1.80;;
9898;SDS011;4988;49.238;6.698;2023-07-13T11:18:49;7.17;;;1.40;;
9898;SDS011;4988;49.238;6.698;2023-07-13T11:21:16;4.57;;;1.57;;
9898;SDS011;4988;49.238;6.698;2023-07-13T11:23:53;6.80;;;1.57;;
9898;SDS011;4988;49.238;6.698;2023-07-13T11:31:57;5.77;;;1.57;;
9898;SDS011;4988;49.238;6.698;2023-07-13T11:36:59;4.90;;;1.57;;
9898;SDS011;4988;49.238;6.698;2023-07-13T11:39:35;4.97;;;1.33;;
9898;SDS011;4988;49.238;6.698;2023-07-13T11:42:04;4.47;;;1.43;;
9898;SDS011;4988;49.238;6.698;2023-07-13T11:44:34;5.00;;;1.40;;
9898;SDS011;4988;49.238;6.698;2023-07-13T11:47:10;5.67;;;1.50;;
9898;SDS011;4988;49.238;6.698;2023-07-13T11:49:43;5.37;;;1.50;;
9898;SDS011;4988;49.238;6.698;2023-07-13T11:52:13;3.23;;;1.37;;
9898;SDS011;4988;49.238;6.698;2023-07-13T11:54:48;5.40;;;1.40;;
9898;SDS011;4988;49.238;6.698;2023-07-13T11:57:20;3.87;;;1.60;;
9898;SDS011;4988;49.238;6.698;2023-07-13T11:59:51;3.63;;;1.70;;
9898;SDS011;4988;49.238;6.698;2023-07-13T12:02:29;5.23;;;1.40;;
9898;SDS011;4988;49.238;6.698;2023-07-13T12:04:57;4.93;;;1.43;;
9898;SDS011;4988;49.238;6.698;2023-07-13T12:07:24;5.23;;;1.70;;
9898;SDS011;4988;49.238;6.698;2023-07-13T12:09:54;5.60;;;1.43;;
9898;SDS011;4988;49.238;6.698;2023-07-13T12:12:28;3.90;;;1.50;;
9898;SDS011;4988;49.238;6.698;2023-07-13T12:14:54;4.63;;;1.40;;
9898;SDS011;4988;49.238;6.698;2023-07-13T12:17:21;7.60;;;1.67;;
9898;SDS011;4988;49.238;6.698;2023-07-13T12:19:48;4.37;;;1.40;;
9898;SDS011;4988;49.238;6.698;2023-07-13T12:22:16;5.77;;;1.50;;
9898;SDS011;4988;49.238;6.698;2023-07-13T12:24:43;4.63;;;1.60;;
9898;SDS011;4988;49.238;6.698;2023-07-13T12:29:49;4.67;;;1.50;;
9898;SDS011;4988;49.238;6.698;2023-07-13T12:32:25;5.67;;;1.50;;
9898;SDS011;4988;49.238;6.698;2023-07-13T12:35:39;3.37;;;1.30;;
9898;SDS011;4988;49.238;6.698;2023-07-13T12:37:42;5.67;;;2.00;;
9898;SDS011;4988;49.238;6.698;2023-07-13T12:40:19;4.93;;;1.67;;
9898;SDS011;4988;49.238;6.698;2023-07-13T12:42:47;3.70;;;1.60;;
9898;SDS011;4988;49.238;6.698;2023-07-13T12:45:21;4.63;;;1.47;;
9898;SDS011;4988;49.238;6.698;2023-07-13T12:47:49;3.87;;;1.33;;
9898;SDS011;4988;49.238;6.698;2023-07-13T12:50:19;4.30;;;1.70;;
9898;SDS011;4988;49.238;6.698;2023-07-13T12:52:51;4.53;;;1.60;;
9898;SDS011;4988;49.238;6.698;2023-07-13T12:55:18;4.30;;;1.40;;
9898;SDS011;4988;49.238;6.698;2023-07-13T12:57:49;5.30;;;1.57;;
9898;SDS011;4988;49.238;6.698;2023-07-13T13:03:03;3.43;;;1.60;;
9898;SDS011;4988;49.238;6.698;2023-07-13T13:05:32;5.23;;;1.27;;
9898;SDS011;4988;49.238;6.698;2023-07-13T13:07:58;5.20;;;1.30;;
9898;SDS011;4988;49.238;6.698;2023-07-13T13:10:24;6.07;;;1.50;;
9898;SDS011;4988;49.238;6.698;2023-07-13T13:12:50;5.23;;;1.60;;
9898;SDS011;4988;49.238;6.698;2023-07-13T13:15:15;6.53;;;1.30;;
9898;SDS011;4988;49.238;6.698;2023-07-13T13:17:41;2.70;;;1.33;;
9898;SDS011;4988;49.238;6.698;2023-07-13T13:20:17;6.43;;;1.60;;
9898;SDS011;4988;49.238;6.698;2023-07-13T13:22:44;6.47;;;1.37;;
9898;SDS011;4988;49.238;6.698;2023-07-13T13:25:10;6.00;;;1.60;;
9898;SDS011;4988;49.238;6.698;2023-07-13T13:27:36;5.40;;;1.60;;
9898;SDS011;4988;49.238;6.698;2023-07-13T13:30:02;5.57;;;1.60;;
9898;SDS011;4988;49.238;6.698;2023-07-13T13:32:28;7.60;;;1.40;;
9898;SDS011;4988;49.238;6.698;2023-07-13T13:34:53;6.50;;;1.37;;
9898;SDS011;4988;49.238;6.698;2023-07-13T13:37:20;3.67;;;1.40;;
9898;SDS011;4988;49.238;6.698;2023-07-13T13:39:50;6.47;;;1.40;;
9898;SDS011;4988;49.238;6.698;2023-07-13T13:42:18;4.53;;;1.40;;
9898;SDS011;4988;49.238;6.698;2023-07-13T13:44:46;2.90;;;1.27;;
9898;SDS011;4988;49.238;6.698;2023-07-13T13:47:27;4.33;;;1.70;;
9898;SDS011;4988;49.238;6.698;2023-07-13T13:49:55;5.87;;;1.40;;
9898;SDS011;4988;49.238;6.698;2023-07-13T13:52:21;4.50;;;1.50;;
9898;SDS011;4988;49.238;6.698;2023-07-13T13:54:46;5.33;;;1.50;;
9898;SDS011;4988;49.238;6.698;2023-07-13T13:57:12;5.23;;;1.23;;
9898;SDS011;4988;49.238;6.698;2023-07-13T13:59:37;3.97;;;1.37;;
9898;SDS011;4988;49.238;6.698;2023-07-13T14:02:11;4.30;;;1.50;;
9898;SDS011;4988;49.238;6.698;2023-07-13T14:04:56;3.13;;;1.30;;
9898;SDS011;4988;49.238;6.698;2023-07-13T14:07:24;3.27;;;1.20;;
9898;SDS011;4988;49.238;6.698;2023-07-13T14:09:51;8.07;;;1.23;;
9898;SDS011;4988;49.238;6.698;2023-07-13T14:12:27;3.37;;;1.10;;
9898;SDS011;4988;49.238;6.698;2023-07-13T14:14:54;6.07;;;1.23;;
9898;SDS011;4988;49.238;6.698;2023-07-13T14:17:22;2.90;;;1.30;;
9898;SDS011;4988;49.238;6.698;2023-07-13T14:19:51;2.50;;;1.40;;
9898;SDS011;4988;49.238;6.698;2023-07-13T14:22:21;1.70;;;1.00;;
9898;SDS011;4988;49.238;6.698;2023-07-13T14:24:53;4.47;;;1.50;;
9898;SDS011;4988;49.238;6.698;2023-07-13T14:27:19;6.43;;;1.70;;
9898;SDS011;4988;49.238;6.698;2023-07-13T14:29:45;3.83;;;1.17;;
9898;SDS011;4988;49.238;6.698;2023-07-13T14:32:11;3.83;;;1.60;;
9898;SDS011;4988;49.238;6.698;2023-07-13T14:34:37;3.90;;;1.50;;
9898;SDS011;4988;49.238;6.698;2023-07-13T14:37:03;5.17;;;1.70;;
9898;SDS011;4988;49.238;6.698;2023-07-13T14:39:29;2.87;;;1.20;;
9898;SDS011;4988;49.238;6.698;2023-07-13T14:41:55;5.63;;;1.20;;
9898;SDS011;4988;49.238;6.698;2023-07-13T14:44:28;5.03;;;1.30;;
9898;SDS011;4988;49.238;6.698;2023-07-13T14:46:54;2.67;;;1.17;;
9898;SDS011;4988;49.238;6.698;2023-07-13T14:52:11;3.97;;;1.17;;
9898;SDS011;4988;49.238;6.698;2023-07-13T14:54:42;4.63;;;1.30;;
9898;SDS011;4988;49.238;6.698;2023-07-13T14:57:09;2.80;;;1.40;;
9898;SDS011;4988;49.238;6.698;2023-07-13T14:59:35;3.67;;;1.40;;
9898;SDS011;4988;49.238;6.698;2023-07-13T15:02:12;4.80;;;1.30;;
9898;SDS011;4988;49.238;6.698;2023-07-13T15:04:41;5.20;;;1.60;;
9898;SDS011;4988;49.238;6.698;2023-07-13T15:07:07;2.87;;;1.20;;
9898;SDS011;4988;49.238;6.698;2023-07-13T15:09:35;5.50;;;1.27;;
9898;SDS011;4988;49.238;6.698;2023-07-13T15:12:00;7.20;;;1.40;;
9898;SDS011;4988;49.238;6.698;2023-07-13T15:14:26;4.57;;;1.40;;
9898;SDS011;4988;49.238;6.698;2023-07-13T15:16:53;2.97;;;1.30;;
9898;SDS011;4988;49.238;6.698;2023-07-13T15:19:20;6.40;;;1.73;;
9898;SDS011;4988;49.238;6.698;2023-07-13T15:21:46;3.50;;;1.27;;
9898;SDS011;4988;49.238;6.698;2023-07-13T15:24:12;2.10;;;1.20;;
9898;SDS011;4988;49.238;6.698;2023-07-13T15:26:38;7.43;;;1.50;;
9898;SDS011;4988;49.238;6.698;2023-07-13T15:29:04;5.50;;;1.40;;
9898;SDS011;4988;49.238;6.698;2023-07-13T15:31:31;6.33;;;1.40;;
9898;SDS011;4988;49.238;6.698;2023-07-13T15:33:58;5.80;;;1.63;;
9898;SDS011;4988;49.238;6.698;2023-07-13T15:36:25;3.00;;;1.30;;
9898;SDS011;4988;49.238;6.698;2023-07-13T15:38:51;3.97;;;1.40;;
9898;SDS011;4988;49.238;6.698;2023-07-13T15:43:45;4.83;;;1.40;;
9898;SDS011;4988;49.238;6.698;2023-07-13T15:46:11;6.83;;;1.60;;
9898;SDS011;4988;49.238;6.698;2023-07-13T15:48:36;6.30;;;1.53;;
9898;SDS011;4988;49.238;6.698;2023-07-13T15:51:03;4.43;;;1.33;;
9898;SDS011;4988;49.238;6.698;2023-07-13T15:53:31;4.17;;;1.50;;
9898;SDS011;4988;49.238;6.698;2023-07-13T15:55:59;4.47;;;1.50;;
9898;SDS011;4988;49.238;6.698;2023-07-13T15:58:24;4.27;;;1.30;;
9898;SDS011;4988;49.238;6.698;2023-07-13T16:00:51;6.77;;;1.27;;